sensor_id;sensor_type;location;lat;lon;timestamp;temperature;humidity
32612;DHT22;19030;49.478;8.986;2023-04-25T00:01:22;7.90;99.90
32612;DHT22;19030;49.478;8.986;2023-04-25T00:03:23;7.90;99.90
32612;DHT22;19030;49.478;8.986;2023-04-25T00:05:26;7.90;99.90
32612;DHT22;19030;49.478;8.986;2023-04-25T00:07:27;7.90;99.90
32612;DHT22;19030;49.478;8.986;2023-04-25T00:09:28;7.90;99.90
32612;DHT22;19030;49.478;8.986;2023-04-25T00:11:28;7.90;99.90
32612;DHT22;19030;49.478;8.986;2023-04-25T00:13:31;7.90;99.90
32612;DHT22;19030;49.478;8.986;2023-04-25T00:15:32;7.90;99.90
32612;DHT22;19030;49.478;8.986;2023-04-25T00:17:32;8.00;99.90
32612;DHT22;19030;49.478;8.986;2023-04-25T00:19:33;7.90;99.90
32612;DHT22;19030;49.478;8.986;2023-04-25T00:21:35;8.00;99.90
32612;DHT22;19030;49.478;8.986;2023-04-25T00:23:37;8.00;99.90
32612;DHT22;19030;49.478;8.986;2023-04-25T00:25:39;8.00;99.90
32612;DHT22;19030;49.478;8.986;2023-04-25T00:27:39;8.00;99.90
32612;DHT22;19030;49.478;8.986;2023-04-25T00:29:42;8.00;99.90
32612;DHT22;19030;49.478;8.986;2023-04-25T00:31:42;8.00;99.90
32612;DHT22;19030;49.478;8.986;2023-04-25T00:33:43;8.00;99.90
32612;DHT22;19030;49.478;8.986;2023-04-25T00:35:43;8.00;99.90
32612;DHT22;19030;49.478;8.986;2023-04-25T00:37:44;8.00;99.90
32612;DHT22;19030;49.478;8.986;2023-04-25T00:39:45;7.90;99.90
32612;DHT22;19030;49.478;8.986;2023-04-25T00:41:45;8.00;99.90
32612;DHT22;19030;49.478;8.986;2023-04-25T00:43:48;7.90;99.90
32612;DHT22;19030;49.478;8.986;2023-04-25T00:45:48;7.90;99.90
32612;DHT22;19030;49.478;8.986;2023-04-25T00:47:51;7.90;99.90
32612;DHT22;19030;49.478;8.986;2023-04-25T00:49:51;7.90;99.90
32612;DHT22;19030;49.478;8.986;2023-04-25T00:51:54;7.90;99.90
32612;DHT22;19030;49.478;8.986;2023-04-25T00:53:55;7.80;99.90
32612;DHT22;19030;49.478;8.986;2023-04-25T00:55:56;7.80;99.90
32612;DHT22;19030;49.478;8.986;2023-04-25T00:57:57;7.80;99.90
32612;DHT22;19030;49.478;8.986;2023-04-25T00:59:58;7.70;99.90
32612;DHT22;19030;49.478;8.986;2023-04-25T01:01:59;7.70;99.90
32612;DHT22;19030;49.478;8.986;2023-04-25T01:04:01;7.70;99.90
32612;DHT22;19030;49.478;8.986;2023-04-25T01:06:02;7.70;99.90
32612;DHT22;19030;49.478;8.986;2023-04-25T01:08:03;7.60;99.90
32612;DHT22;19030;49.478;8.986;2023-04-25T01:10:05;7.60;99.90
32612;DHT22;19030;49.478;8.986;2023-04-25T01:12:06;7.60;99.90
32612;DHT22;19030;49.478;8.986;2023-04-25T01:14:08;7.50;99.90
32612;DHT22;19030;49.478;8.986;2023-04-25T01:16:09;7.50;99.90
32612;DHT22;19030;49.478;8.986;2023-04-25T01:18:10;7.50;99.90
32612;DHT22;19030;49.478;8.986;2023-04-25T01:20:11;7.50;99.90
32612;DHT22;19030;49.478;8.986;2023-04-25T01:22:13;7.50;99.90
32612;DHT22;19030;49.478;8.986;2023-04-25T01:24:14;7.50;99.90
32612;DHT22;19030;49.478;8.986;2023-04-25T01:26:15;7.50;99.90
32612;DHT22;19030;49.478;8.986;2023-04-25T01:28:17;7.50;99.90
32612;DHT22;19030;49.478;8.986;2023-04-25T01:30:17;7.40;99.90
32612;DHT22;19030;49.478;8.986;2023-04-25T01:32:18;7.40;99.90
32612;DHT22;19030;49.478;8.986;2023-04-25T01:34:19;7.40;99.90
32612;DHT22;19030;49.478;8.986;2023-04-25T01:36:21;7.30;99.90
32612;DHT22;19030;49.478;8.986;2023-04-25T01:38:22;7.30;99.90
32612;DHT22;19030;49.478;8.986;2023-04-25T01:40:24;7.20;99.90
32612;DHT22;19030;49.478;8.986;2023-04-25T01:42:25;7.20;99.90
32612;DHT22;19030;49.478;8.986;2023-04-25T01:44:25;7.20;99.90
32612;DHT22;19030;49.478;8.986;2023-04-25T01:46:27;7.10;99.90
32612;DHT22;19030;49.478;8.986;2023-04-25T01:48:27;7.10;99.90
32612;DHT22;19030;49.478;8.986;2023-04-25T01:50:28;7.10;99.90
32612;DHT22;19030;49.478;8.986;2023-04-25T01:52:29;7.10;99.90
32612;DHT22;19030;49.478;8.986;2023-04-25T01:54:31;7.20;99.90
32612;DHT22;19030;49.478;8.986;2023-04-25T01:56:32;7.10;99.90
32612;DHT22;19030;49.478;8.986;2023-04-25T01:58:34;7.10;99.90
32612;DHT22;19030;49.478;8.986;2023-04-25T02:00:53;7.10;99.90
32612;DHT22;19030;49.478;8.986;2023-04-25T02:02:53;7.10;99.90
32612;DHT22;19030;49.478;8.986;2023-04-25T02:05:00;7.10;99.90
32612;DHT22;19030;49.478;8.986;2023-04-25T02:07:03;7.10;99.90
32612;DHT22;19030;49.478;8.986;2023-04-25T02:09:13;7.10;99.90
32612;DHT22;19030;49.478;8.986;2023-04-25T02:11:19;7.10;99.90
32612;DHT22;19030;49.478;8.986;2023-04-25T02:13:28;7.10;99.90
32612;DHT22;19030;49.478;8.986;2023-04-25T02:15:35;7.10;99.90
32612;DHT22;19030;49.478;8.986;2023-04-25T02:17:48;7.10;99.90
32612;DHT22;19030;49.478;8.986;2023-04-25T02:19:49;7.10;99.90
32612;DHT22;19030;49.478;8.986;2023-04-25T02:21:50;7.10;99.90
32612;DHT22;19030;49.478;8.986;2023-04-25T02:23:51;7.20;99.90
32612;DHT22;19030;49.478;8.986;2023-04-25T02:25:52;7.20;99.90
32612;DHT22;19030;49.478;8.986;2023-04-25T02:27:53;7.20;99.90
32612;DHT22;19030;49.478;8.986;2023-04-25T02:29:54;7.20;99.90
32612;DHT22;19030;49.478;8.986;2023-04-25T02:31:55;7.20;99.90
32612;DHT22;19030;49.478;8.986;2023-04-25T02:33:56;7.20;99.90
32612;DHT22;19030;49.478;8.986;2023-04-25T02:35:56;7.20;99.90
32612;DHT22;19030;49.478;8.986;2023-04-25T02:37:57;7.30;99.90
32612;DHT22;19030;49.478;8.986;2023-04-25T02:39:58;7.30;99.90
32612;DHT22;19030;49.478;8.986;2023-04-25T02:41:58;7.30;99.90
32612;DHT22;19030;49.478;8.986;2023-04-25T02:43:59;7.30;99.90
32612;DHT22;19030;49.478;8.986;2023-04-25T02:45:59;7.30;99.90
32612;DHT22;19030;49.478;8.986;2023-04-25T02:48:00;7.30;99.90
32612;DHT22;19030;49.478;8.986;2023-04-25T02:50:00;7.30;99.90
32612;DHT22;19030;49.478;8.986;2023-04-25T02:52:01;7.40;99.90
32612;DHT22;19030;49.478;8.986;2023-04-25T02:54:02;7.40;99.90
32612;DHT22;19030;49.478;8.986;2023-04-25T02:56:03;7.40;99.90
32612;DHT22;19030;49.478;8.986;2023-04-25T02:58:04;7.40;99.90
32612;DHT22;19030;49.478;8.986;2023-04-25T03:00:16;7.40;99.90
32612;DHT22;19030;49.478;8.986;2023-04-25T03:02:16;7.40;99.90
32612;DHT22;19030;49.478;8.986;2023-04-25T03:04:17;7.40;99.90
32612;DHT22;19030;49.478;8.986;2023-04-25T03:06:19;7.40;99.90
32612;DHT22;19030;49.478;8.986;2023-04-25T03:08:20;7.40;99.90
32612;DHT22;19030;49.478;8.986;2023-04-25T03:10:20;7.40;99.90
32612;DHT22;19030;49.478;8.986;2023-04-25T03:12:21;7.40;99.90
32612;DHT22;19030;49.478;8.986;2023-04-25T03:14:22;7.40;99.90
32612;DHT22;19030;49.478;8.986;2023-04-25T03:16:23;7.50;99.90
32612;DHT22;19030;49.478;8.986;2023-04-25T03:18:24;7.50;99.90
32612;DHT22;19030;49.478;8.986;2023-04-25T03:20:24;7.50;99.90
32612;DHT22;19030;49.478;8.986;2023-04-25T03:22:25;7.50;99.90
32612;DHT22;19030;49.478;8.986;2023-04-25T03:24:26;7.50;99.90
32612;DHT22;19030;49.478;8.986;2023-04-25T03:26:27;7.50;99.90
32612;DHT22;19030;49.478;8.986;2023-04-25T03:28:28;7.50;99.90
32612;DHT22;19030;49.478;8.986;2023-04-25T03:30:30;7.50;99.90
32612;DHT22;19030;49.478;8.986;2023-04-25T03:32:31;7.50;99.90
32612;DHT22;19030;49.478;8.986;2023-04-25T03:34:31;7.50;99.90
32612;DHT22;19030;49.478;8.986;2023-04-25T03:36:32;7.50;99.90
32612;DHT22;19030;49.478;8.986;2023-04-25T03:38:33;7.50;99.90
32612;DHT22;19030;49.478;8.986;2023-04-25T03:40:33;7.50;99.90
32612;DHT22;19030;49.478;8.986;2023-04-25T03:42:51;7.40;99.90
32612;DHT22;19030;49.478;8.986;2023-04-25T03:44:52;7.50;99.90
32612;DHT22;19030;49.478;8.986;2023-04-25T03:46:53;7.50;99.90
32612;DHT22;19030;49.478;8.986;2023-04-25T03:48:54;7.50;99.90
32612;DHT22;19030;49.478;8.986;2023-04-25T03:50:59;7.50;99.90
32612;DHT22;19030;49.478;8.986;2023-04-25T03:53:00;7.50;99.90
32612;DHT22;19030;49.478;8.986;2023-04-25T03:55:04;7.40;99.90
32612;DHT22;19030;49.478;8.986;2023-04-25T03:57:05;7.40;99.90
32612;DHT22;19030;49.478;8.986;2023-04-25T03:59:09;7.50;99.90
32612;DHT22;19030;49.478;8.986;2023-04-25T04:01:10;7.40;99.90
32612;DHT22;19030;49.478;8.986;2023-04-25T04:03:12;7.40;99.90
32612;DHT22;19030;49.478;8.986;2023-04-25T04:05:13;7.40;99.90
32612;DHT22;19030;49.478;8.986;2023-04-25T04:07:20;7.40;99.90
32612;DHT22;19030;49.478;8.986;2023-04-25T04:09:24;7.40;99.90
32612;DHT22;19030;49.478;8.986;2023-04-25T04:11:25;7.40;99.90
32612;DHT22;19030;49.478;8.986;2023-04-25T04:13:27;7.40;99.90
32612;DHT22;19030;49.478;8.986;2023-04-25T04:15:28;7.40;99.90
32612;DHT22;19030;49.478;8.986;2023-04-25T04:17:29;7.40;99.90
32612;DHT22;19030;49.478;8.986;2023-04-25T04:19:31;7.50;99.90
32612;DHT22;19030;49.478;8.986;2023-04-25T04:21:47;7.50;99.90
32612;DHT22;19030;49.478;8.986;2023-04-25T04:23:47;7.50;99.90
32612;DHT22;19030;49.478;8.986;2023-04-25T04:25:48;7.50;99.90
32612;DHT22;19030;49.478;8.986;2023-04-25T04:28:12;7.50;99.90
32612;DHT22;19030;49.478;8.986;2023-04-25T04:30:23;7.50;99.90
32612;DHT22;19030;49.478;8.986;2023-04-25T04:32:30;7.50;99.90
32612;DHT22;19030;49.478;8.986;2023-04-25T04:34:31;7.50;99.90
32612;DHT22;19030;49.478;8.986;2023-04-25T04:36:32;7.50;99.90
32612;DHT22;19030;49.478;8.986;2023-04-25T04:38:33;7.50;99.90
32612;DHT22;19030;49.478;8.986;2023-04-25T04:40:36;7.50;99.90
32612;DHT22;19030;49.478;8.986;2023-04-25T04:42:55;7.50;99.90
32612;DHT22;19030;49.478;8.986;2023-04-25T04:45:10;7.50;99.90
32612;DHT22;19030;49.478;8.986;2023-04-25T04:47:29;7.60;99.90
32612;DHT22;19030;49.478;8.986;2023-04-25T04:49:44;7.60;99.90
32612;DHT22;19030;49.478;8.986;2023-04-25T04:52:06;7.60;99.90
32612;DHT22;19030;49.478;8.986;2023-04-25T04:54:23;7.60;99.90
32612;DHT22;19030;49.478;8.986;2023-04-25T04:56:35;7.60;99.90
32612;DHT22;19030;49.478;8.986;2023-04-25T04:59:01;7.70;99.90
32612;DHT22;19030;49.478;8.986;2023-04-25T05:01:08;7.60;99.90
32612;DHT22;19030;49.478;8.986;2023-04-25T05:03:30;7.70;99.90
32612;DHT22;19030;49.478;8.986;2023-04-25T05:05:41;7.70;99.90
32612;DHT22;19030;49.478;8.986;2023-04-25T05:07:53;7.70;99.90
32612;DHT22;19030;49.478;8.986;2023-04-25T05:10:12;7.70;99.90
32612;DHT22;19030;49.478;8.986;2023-04-25T05:12:33;7.70;99.90
32612;DHT22;19030;49.478;8.986;2023-04-25T05:14:50;7.70;99.90
32612;DHT22;19030;49.478;8.986;2023-04-25T05:17:23;7.80;99.90
32612;DHT22;19030;49.478;8.986;2023-04-25T05:19:39;7.80;99.90
32612;DHT22;19030;49.478;8.986;2023-04-25T05:21:54;7.80;99.90
32612;DHT22;19030;49.478;8.986;2023-04-25T05:24:18;7.80;99.90
32612;DHT22;19030;49.478;8.986;2023-04-25T05:26:21;7.90;99.90
32612;DHT22;19030;49.478;8.986;2023-04-25T05:28:28;7.90;99.90
32612;DHT22;19030;49.478;8.986;2023-04-25T05:30:42;7.90;99.90
32612;DHT22;19030;49.478;8.986;2023-04-25T05:32:50;7.90;99.90
32612;DHT22;19030;49.478;8.986;2023-04-25T05:34:51;7.90;99.90
32612;DHT22;19030;49.478;8.986;2023-04-25T05:37:10;8.00;99.90
32612;DHT22;19030;49.478;8.986;2023-04-25T05:39:20;8.00;99.90
32612;DHT22;19030;49.478;8.986;2023-04-25T05:41:40;8.00;99.90
32612;DHT22;19030;49.478;8.986;2023-04-25T05:44:12;8.00;99.90
32612;DHT22;19030;49.478;8.986;2023-04-25T05:46:18;8.00;99.90
32612;DHT22;19030;49.478;8.986;2023-04-25T05:48:27;8.10;99.90
32612;DHT22;19030;49.478;8.986;2023-04-25T05:50:53;8.10;99.90
32612;DHT22;19030;49.478;8.986;2023-04-25T05:53:29;8.20;99.90
32612;DHT22;19030;49.478;8.986;2023-04-25T05:55:34;8.20;99.90
32612;DHT22;19030;49.478;8.986;2023-04-25T05:57:45;8.30;99.90
32612;DHT22;19030;49.478;8.986;2023-04-25T05:59:47;8.30;99.90
32612;DHT22;19030;49.478;8.986;2023-04-25T06:01:50;8.30;99.90
32612;DHT22;19030;49.478;8.986;2023-04-25T06:03:52;8.40;99.90
32612;DHT22;19030;49.478;8.986;2023-04-25T06:05:53;8.40;99.90
32612;DHT22;19030;49.478;8.986;2023-04-25T06:07:54;8.50;99.90
32612;DHT22;19030;49.478;8.986;2023-04-25T06:09:54;8.50;99.90
32612;DHT22;19030;49.478;8.986;2023-04-25T06:11:55;8.60;99.90
32612;DHT22;19030;49.478;8.986;2023-04-25T06:13:56;8.70;99.90
32612;DHT22;19030;49.478;8.986;2023-04-25T06:15:56;8.70;99.90
32612;DHT22;19030;49.478;8.986;2023-04-25T06:17:57;8.80;99.90
32612;DHT22;19030;49.478;8.986;2023-04-25T06:19:57;8.90;99.90
32612;DHT22;19030;49.478;8.986;2023-04-25T06:21:58;9.00;99.90
32612;DHT22;19030;49.478;8.986;2023-04-25T06:23:59;9.10;99.90
32612;DHT22;19030;49.478;8.986;2023-04-25T06:26:00;9.20;99.90
32612;DHT22;19030;49.478;8.986;2023-04-25T06:28:03;9.30;99.90
32612;DHT22;19030;49.478;8.986;2023-04-25T06:30:04;9.40;99.90
32612;DHT22;19030;49.478;8.986;2023-04-25T06:32:08;9.50;99.90
32612;DHT22;19030;49.478;8.986;2023-04-25T06:34:09;9.60;99.90
32612;DHT22;19030;49.478;8.986;2023-04-25T06:36:13;9.70;99.90
32612;DHT22;19030;49.478;8.986;2023-04-25T06:38:15;9.80;99.90
32612;DHT22;19030;49.478;8.986;2023-04-25T06:40:20;9.90;99.90
32612;DHT22;19030;49.478;8.986;2023-04-25T06:42:20;9.90;99.90
32612;DHT22;19030;49.478;8.986;2023-04-25T06:44:30;9.90;99.90
32612;DHT22;19030;49.478;8.986;2023-04-25T06:46:31;9.80;99.90
32612;DHT22;19030;49.478;8.986;2023-04-25T06:48:33;9.90;99.90
32612;DHT22;19030;49.478;8.986;2023-04-25T06:50:34;10.00;99.90
32612;DHT22;19030;49.478;8.986;2023-04-25T06:52:35;10.10;99.90
32612;DHT22;19030;49.478;8.986;2023-04-25T06:54:35;10.20;99.90
32612;DHT22;19030;49.478;8.986;2023-04-25T06:56:46;10.20;99.90
32612;DHT22;19030;49.478;8.986;2023-04-25T06:58:48;10.20;99.90
32612;DHT22;19030;49.478;8.986;2023-04-25T07:00:57;10.20;99.90
32612;DHT22;19030;49.478;8.986;2023-04-25T07:03:00;10.10;99.90
32612;DHT22;19030;49.478;8.986;2023-04-25T07:05:01;10.10;99.90
32612;DHT22;19030;49.478;8.986;2023-04-25T07:07:04;10.10;99.90
32612;DHT22;19030;49.478;8.986;2023-04-25T07:09:15;10.10;99.90
32612;DHT22;19030;49.478;8.986;2023-04-25T07:11:19;10.10;99.90
32612;DHT22;19030;49.478;8.986;2023-04-25T07:13:20;10.10;99.90
32612;DHT22;19030;49.478;8.986;2023-04-25T07:15:21;10.00;99.90
32612;DHT22;19030;49.478;8.986;2023-04-25T07:17:23;9.90;99.90
32612;DHT22;19030;49.478;8.986;2023-04-25T07:19:24;9.80;99.90
32612;DHT22;19030;49.478;8.986;2023-04-25T07:21:27;9.70;99.90
32612;DHT22;19030;49.478;8.986;2023-04-25T07:23:29;9.70;99.90
32612;DHT22;19030;49.478;8.986;2023-04-25T07:25:33;9.60;99.90
32612;DHT22;19030;49.478;8.986;2023-04-25T07:27:35;9.50;99.90
32612;DHT22;19030;49.478;8.986;2023-04-25T07:29:47;9.40;99.90
32612;DHT22;19030;49.478;8.986;2023-04-25T07:31:48;9.30;99.90
32612;DHT22;19030;49.478;8.986;2023-04-25T07:33:49;9.20;99.90
32612;DHT22;19030;49.478;8.986;2023-04-25T07:35:50;9.10;99.90
32612;DHT22;19030;49.478;8.986;2023-04-25T07:37:51;9.00;99.90
32612;DHT22;19030;49.478;8.986;2023-04-25T07:39:53;9.00;99.90
32612;DHT22;19030;49.478;8.986;2023-04-25T07:41:54;9.00;99.90
32612;DHT22;19030;49.478;8.986;2023-04-25T07:43:58;8.90;99.90
32612;DHT22;19030;49.478;8.986;2023-04-25T07:45:59;9.00;99.90
32612;DHT22;19030;49.478;8.986;2023-04-25T07:48:02;9.00;99.90
32612;DHT22;19030;49.478;8.986;2023-04-25T07:50:05;9.10;99.90
32612;DHT22;19030;49.478;8.986;2023-04-25T07:52:06;9.30;99.90
32612;DHT22;19030;49.478;8.986;2023-04-25T07:54:13;9.50;99.90
32612;DHT22;19030;49.478;8.986;2023-04-25T07:56:18;9.90;99.90
32612;DHT22;19030;49.478;8.986;2023-04-25T07:58:22;10.20;99.90
32612;DHT22;19030;49.478;8.986;2023-04-25T08:00:25;10.50;99.90
32612;DHT22;19030;49.478;8.986;2023-04-25T08:02:38;10.80;99.90
32612;DHT22;19030;49.478;8.986;2023-04-25T08:04:38;11.00;99.90
32612;DHT22;19030;49.478;8.986;2023-04-25T08:06:42;11.20;99.90
32612;DHT22;19030;49.478;8.986;2023-04-25T08:08:48;11.50;99.90
32612;DHT22;19030;49.478;8.986;2023-04-25T08:10:52;11.80;99.90
32612;DHT22;19030;49.478;8.986;2023-04-25T08:12:52;12.00;99.90
32612;DHT22;19030;49.478;8.986;2023-04-25T08:14:53;12.10;99.90
32612;DHT22;19030;49.478;8.986;2023-04-25T08:16:54;12.30;99.90
32612;DHT22;19030;49.478;8.986;2023-04-25T08:18:54;12.30;99.90
32612;DHT22;19030;49.478;8.986;2023-04-25T08:20:55;12.40;99.90
32612;DHT22;19030;49.478;8.986;2023-04-25T08:22:56;12.30;99.90
32612;DHT22;19030;49.478;8.986;2023-04-25T08:25:25;12.20;99.90
32612;DHT22;19030;49.478;8.986;2023-04-25T08:27:26;12.20;99.90
32612;DHT22;19030;49.478;8.986;2023-04-25T08:29:26;12.40;99.90
32612;DHT22;19030;49.478;8.986;2023-04-25T08:31:28;12.60;99.90
32612;DHT22;19030;49.478;8.986;2023-04-25T08:33:33;12.90;99.90
32612;DHT22;19030;49.478;8.986;2023-04-25T08:35:52;13.30;99.90
32612;DHT22;19030;49.478;8.986;2023-04-25T08:37:53;13.80;99.90
32612;DHT22;19030;49.478;8.986;2023-04-25T08:39:54;14.10;99.90
32612;DHT22;19030;49.478;8.986;2023-04-25T08:42:15;14.10;99.90
32612;DHT22;19030;49.478;8.986;2023-04-25T08:44:16;14.20;99.90
32612;DHT22;19030;49.478;8.986;2023-04-25T08:46:18;14.30;99.90
32612;DHT22;19030;49.478;8.986;2023-04-25T08:49:00;14.10;99.90
32612;DHT22;19030;49.478;8.986;2023-04-25T08:51:02;13.70;99.90
32612;DHT22;19030;49.478;8.986;2023-04-25T08:53:09;13.60;99.90
32612;DHT22;19030;49.478;8.986;2023-04-25T08:55:14;13.80;99.90
32612;DHT22;19030;49.478;8.986;2023-04-25T08:57:17;14.30;99.90
32612;DHT22;19030;49.478;8.986;2023-04-25T08:59:19;15.80;99.90
32612;DHT22;19030;49.478;8.986;2023-04-25T09:01:21;17.90;96.60
32612;DHT22;19030;49.478;8.986;2023-04-25T09:03:27;19.80;81.80
32612;DHT22;19030;49.478;8.986;2023-04-25T09:05:28;20.90;68.90
32612;DHT22;19030;49.478;8.986;2023-04-25T09:07:29;21.20;61.80
32612;DHT22;19030;49.478;8.986;2023-04-25T09:09:30;21.50;59.40
32612;DHT22;19030;49.478;8.986;2023-04-25T09:11:32;21.80;58.70
32612;DHT22;19030;49.478;8.986;2023-04-25T09:13:35;21.90;56.20
32612;DHT22;19030;49.478;8.986;2023-04-25T09:15:57;21.10;56.30
32612;DHT22;19030;49.478;8.986;2023-04-25T09:18:28;19.90;58.90
32612;DHT22;19030;49.478;8.986;2023-04-25T09:20:29;18.70;62.30
32612;DHT22;19030;49.478;8.986;2023-04-25T09:22:30;18.30;61.60
32612;DHT22;19030;49.478;8.986;2023-04-25T09:24:40;17.60;62.90
32612;DHT22;19030;49.478;8.986;2023-04-25T09:26:42;16.40;64.70
32612;DHT22;19030;49.478;8.986;2023-04-25T09:28:44;15.40;69.20
32612;DHT22;19030;49.478;8.986;2023-04-25T09:30:46;15.00;73.20
32612;DHT22;19030;49.478;8.986;2023-04-25T09:33:11;14.80;72.10
32612;DHT22;19030;49.478;8.986;2023-04-25T09:35:24;15.00;71.50
32612;DHT22;19030;49.478;8.986;2023-04-25T09:37:28;15.20;75.00
32612;DHT22;19030;49.478;8.986;2023-04-25T09:39:50;16.60;68.20
32612;DHT22;19030;49.478;8.986;2023-04-25T09:41:54;16.90;62.80
32612;DHT22;19030;49.478;8.986;2023-04-25T09:43:57;16.80;63.50
32612;DHT22;19030;49.478;8.986;2023-04-25T09:46:01;16.80;65.70
32612;DHT22;19030;49.478;8.986;2023-04-25T09:48:03;17.30;64.40
32612;DHT22;19030;49.478;8.986;2023-04-25T09:50:14;17.70;64.80
32612;DHT22;19030;49.478;8.986;2023-04-25T09:52:19;18.50;62.00
32612;DHT22;19030;49.478;8.986;2023-04-25T09:54:30;18.70;57.50
32612;DHT22;19030;49.478;8.986;2023-04-25T09:56:41;18.50;60.70
32612;DHT22;19030;49.478;8.986;2023-04-25T09:58:44;19.30;56.10
32612;DHT22;19030;49.478;8.986;2023-04-25T10:00:46;20.40;51.60
32612;DHT22;19030;49.478;8.986;2023-04-25T10:03:02;21.90;50.60
32612;DHT22;19030;49.478;8.986;2023-04-25T10:05:37;21.60;50.40
32612;DHT22;19030;49.478;8.986;2023-04-25T10:07:39;19.80;51.90
32612;DHT22;19030;49.478;8.986;2023-04-25T10:09:47;18.40;54.90
32612;DHT22;19030;49.478;8.986;2023-04-25T10:11:50;17.50;57.40
32612;DHT22;19030;49.478;8.986;2023-04-25T10:13:51;17.10;59.90
32612;DHT22;19030;49.478;8.986;2023-04-25T10:15:53;16.70;60.00
32612;DHT22;19030;49.478;8.986;2023-04-25T10:17:54;16.60;61.60
32612;DHT22;19030;49.478;8.986;2023-04-25T10:19:57;16.90;60.70
32612;DHT22;19030;49.478;8.986;2023-04-25T10:22:37;17.60;58.80
32612;DHT22;19030;49.478;8.986;2023-04-25T10:24:39;18.60;55.70
32612;DHT22;19030;49.478;8.986;2023-04-25T10:26:40;18.80;55.70
32612;DHT22;19030;49.478;8.986;2023-04-25T10:28:58;18.50;56.50
32612;DHT22;19030;49.478;8.986;2023-04-25T10:31:04;18.20;56.70
32612;DHT22;19030;49.478;8.986;2023-04-25T10:33:17;18.10;55.80
32612;DHT22;19030;49.478;8.986;2023-04-25T10:35:27;18.30;58.00
32612;DHT22;19030;49.478;8.986;2023-04-25T10:37:29;18.30;56.10
32612;DHT22;19030;49.478;8.986;2023-04-25T10:39:32;18.00;55.70
32612;DHT22;19030;49.478;8.986;2023-04-25T10:41:46;17.80;57.60
32612;DHT22;19030;49.478;8.986;2023-04-25T10:43:49;17.50;57.10
32612;DHT22;19030;49.478;8.986;2023-04-25T10:45:51;17.10;58.30
32612;DHT22;19030;49.478;8.986;2023-04-25T10:47:52;16.60;60.70
32612;DHT22;19030;49.478;8.986;2023-04-25T10:49:52;15.90;60.10
32612;DHT22;19030;49.478;8.986;2023-04-25T10:52:14;15.70;62.40
32612;DHT22;19030;49.478;8.986;2023-04-25T10:54:17;15.60;62.00
32612;DHT22;19030;49.478;8.986;2023-04-25T10:58:29;17.80;58.70
32612;DHT22;19030;49.478;8.986;2023-04-25T11:00:29;18.90;56.40
32612;DHT22;19030;49.478;8.986;2023-04-25T11:02:31;19.20;54.90
32612;DHT22;19030;49.478;8.986;2023-04-25T11:04:33;18.70;54.10
32612;DHT22;19030;49.478;8.986;2023-04-25T11:09:10;17.70;57.60
32612;DHT22;19030;49.478;8.986;2023-04-25T11:11:13;17.10;57.50
32612;DHT22;19030;49.478;8.986;2023-04-25T11:13:13;16.40;59.10
32612;DHT22;19030;49.478;8.986;2023-04-25T11:15:14;15.60;61.10
32612;DHT22;19030;49.478;8.986;2023-04-25T11:17:15;15.20;63.40
32612;DHT22;19030;49.478;8.986;2023-04-25T11:19:15;14.70;63.30
32612;DHT22;19030;49.478;8.986;2023-04-25T11:21:16;14.40;66.10
32612;DHT22;19030;49.478;8.986;2023-04-25T11:23:17;14.10;69.40
32612;DHT22;19030;49.478;8.986;2023-04-25T11:25:17;14.00;71.00
32612;DHT22;19030;49.478;8.986;2023-04-25T11:27:18;13.90;70.40
32612;DHT22;19030;49.478;8.986;2023-04-25T11:29:22;13.70;70.40
32612;DHT22;19030;49.478;8.986;2023-04-25T11:31:25;13.80;71.60
32612;DHT22;19030;49.478;8.986;2023-04-25T11:33:26;14.20;74.40
32612;DHT22;19030;49.478;8.986;2023-04-25T11:35:30;15.20;75.50
32612;DHT22;19030;49.478;8.986;2023-04-25T11:37:31;16.30;73.00
32612;DHT22;19030;49.478;8.986;2023-04-25T11:39:31;17.10;63.30
32612;DHT22;19030;49.478;8.986;2023-04-25T11:41:32;17.20;64.70
32612;DHT22;19030;49.478;8.986;2023-04-25T11:43:33;17.20;60.00
32612;DHT22;19030;49.478;8.986;2023-04-25T11:45:33;17.00;59.90
32612;DHT22;19030;49.478;8.986;2023-04-25T11:47:34;16.90;62.80
32612;DHT22;19030;49.478;8.986;2023-04-25T11:49:35;16.80;62.70
32612;DHT22;19030;49.478;8.986;2023-04-25T11:51:43;16.60;60.10
32612;DHT22;19030;49.478;8.986;2023-04-25T11:53:47;16.00;62.00
32612;DHT22;19030;49.478;8.986;2023-04-25T11:55:47;15.30;64.80
32612;DHT22;19030;49.478;8.986;2023-04-25T11:57:49;15.00;64.10
32612;DHT22;19030;49.478;8.986;2023-04-25T11:59:50;14.50;65.40
32612;DHT22;19030;49.478;8.986;2023-04-25T12:01:51;14.00;69.50
32612;DHT22;19030;49.478;8.986;2023-04-25T12:03:52;13.50;69.60
32612;DHT22;19030;49.478;8.986;2023-04-25T12:05:52;13.10;73.30
32612;DHT22;19030;49.478;8.986;2023-04-25T12:07:53;12.90;75.20
32612;DHT22;19030;49.478;8.986;2023-04-25T12:09:54;12.90;79.10
32612;DHT22;19030;49.478;8.986;2023-04-25T12:11:56;12.80;78.80
32612;DHT22;19030;49.478;8.986;2023-04-25T12:14:04;12.80;78.40
32612;DHT22;19030;49.478;8.986;2023-04-25T12:16:05;13.00;78.70
32612;DHT22;19030;49.478;8.986;2023-04-25T12:18:06;13.20;79.20
32612;DHT22;19030;49.478;8.986;2023-04-25T12:20:08;13.60;79.10
32612;DHT22;19030;49.478;8.986;2023-04-25T12:22:24;14.10;76.70
32612;DHT22;19030;49.478;8.986;2023-04-25T12:24:26;14.70;72.30
32612;DHT22;19030;49.478;8.986;2023-04-25T12:26:48;14.80;74.30
32612;DHT22;19030;49.478;8.986;2023-04-25T12:28:49;15.20;70.90
32612;DHT22;19030;49.478;8.986;2023-04-25T12:30:57;15.80;69.60
32612;DHT22;19030;49.478;8.986;2023-04-25T12:32:58;16.40;69.10
32612;DHT22;19030;49.478;8.986;2023-04-25T12:34:58;17.60;65.70
32612;DHT22;19030;49.478;8.986;2023-04-25T12:36:59;18.60;60.20
32612;DHT22;19030;49.478;8.986;2023-04-25T12:38:59;18.90;55.90
32612;DHT22;19030;49.478;8.986;2023-04-25T12:41:04;18.60;56.30
32612;DHT22;19030;49.478;8.986;2023-04-25T12:43:05;17.90;57.70
32612;DHT22;19030;49.478;8.986;2023-04-25T12:45:06;17.20;58.80
32612;DHT22;19030;49.478;8.986;2023-04-25T12:47:07;16.90;62.30
32612;DHT22;19030;49.478;8.986;2023-04-25T12:49:08;16.30;60.60
32612;DHT22;19030;49.478;8.986;2023-04-25T12:51:09;15.90;63.10
32612;DHT22;19030;49.478;8.986;2023-04-25T12:53:10;15.80;65.60
32612;DHT22;19030;49.478;8.986;2023-04-25T12:55:11;15.70;63.40
32612;DHT22;19030;49.478;8.986;2023-04-25T12:57:12;15.40;65.70
32612;DHT22;19030;49.478;8.986;2023-04-25T12:59:13;15.00;67.60
32612;DHT22;19030;49.478;8.986;2023-04-25T13:01:14;14.50;66.10
32612;DHT22;19030;49.478;8.986;2023-04-25T13:03:15;14.30;68.40
32612;DHT22;19030;49.478;8.986;2023-04-25T13:05:15;14.20;67.70
32612;DHT22;19030;49.478;8.986;2023-04-25T13:07:16;14.20;67.80
32612;DHT22;19030;49.478;8.986;2023-04-25T13:09:17;14.40;68.10
32612;DHT22;19030;49.478;8.986;2023-04-25T13:11:17;14.60;66.50
32612;DHT22;19030;49.478;8.986;2023-04-25T13:13:18;15.10;65.70
32612;DHT22;19030;49.478;8.986;2023-04-25T13:15:19;15.80;65.40
32612;DHT22;19030;49.478;8.986;2023-04-25T13:17:19;16.20;61.60
32612;DHT22;19030;49.478;8.986;2023-04-25T13:19:20;16.20;60.20